Eprise, Alabama
Current Conditions -  °F | °C
As of 7:56 AM on Sunday 25 Jan 2015 (Local Time) from KSXS Reporting Station
Clear Clear  
Wind Chill:   Ceiling: Unl
Heat Index:   Visibility: 10mi
Dew Point:   Wind: 2mph
Humidity: 78%   Direction: 270°W
Pressure: 30.05"   Gusts: NA
Location:  31.3153°N, 85.8554°W
Report Text: KSXS 251356Z AUTO 27002KT 10SM CLR 05/02 A3005 RMK AO2 SLP180 T00510015
Loading
Personal Weather Stations






























Interactive Weather Map New forecast layout! Learn more

10-Day Weather Forecast

Advertisements
Track Severe Weather on mobile